Time;durP1;ratioP1;P1;durP2;ratioP2;P2;SDS_P1;SDS_P2;PMS_P1;PMS_P2;Temp;Humidity;BMP_temperature;BMP_pressure;BME280_temperature;BME280_humidity;BME280_pressure;Samples;Min_cycle;Max_cycle;Signal;HPM_P1;HPM_P2
2023/11/12 00:01:42;;;;;;;18.52;2.55;;;12.20;57.30;;;;;;6098840;29;20047;-73
2023/11/12 00:04:45;;;;;;;4.47;2.58;;;12.10;57.40;;;;;;6099190;29;20314;-74
2023/11/12 00:07:49;;;;;;;11.55;2.78;;;12.20;57.50;;;;;;6097341;29;20542;-74
2023/11/12 00:10:53;;;;;;;6.60;2.78;;;12.20;57.50;;;;;;6098292;29;20047;-74
2023/11/12 00:13:56;;;;;;;5.85;3.00;;;12.20;57.50;;;;;;6112752;29;20060;-73
2023/11/12 00:16:59;;;;;;;4.78;2.75;;;12.30;57.60;;;;;;6098267;29;20480;-74
2023/11/12 00:20:04;;;;;;;8.10;3.28;;;12.10;57.50;;;;;;6097930;29;20385;-74
2023/11/12 00:23:08;;;;;;;7.03;3.15;;;12.20;57.60;;;;;;6098345;29;20028;-73
2023/11/12 00:26:12;;;;;;;7.45;2.92;;;12.20;57.70;;;;;;6112712;29;20040;-74
2023/11/12 00:29:18;;;;;;;4.65;2.40;;;12.20;57.70;;;;;;6112533;29;20075;-73
2023/11/12 00:32:19;;;;;;;6.63;2.78;;;12.20;57.70;;;;;;6098106;29;20425;-74
2023/11/12 00:35:20;;;;;;;5.72;2.17;;;12.20;57.80;;;;;;6099180;29;20306;-73
2023/11/12 00:38:24;;;;;;;6.63;2.80;;;12.20;57.80;;;;;;6115257;29;20032;-74
2023/11/12 00:41:26;;;;;;;9.60;3.45;;;12.30;57.90;;;;;;6107858;29;20123;-74
2023/11/12 00:44:31;;;;;;;8.30;2.20;;;12.30;57.90;;;;;;6096813;29;20458;-73
2023/11/12 00:47:35;;;;;;;15.05;3.03;;;12.30;58.00;;;;;;6097592;29;20401;-73
2023/11/12 00:50:38;;;;;;;4.15;2.28;;;12.30;58.10;;;;;;6097544;29;20127;-74
2023/11/12 00:53:41;;;;;;;11.40;3.15;;;12.30;58.20;;;;;;6080341;29;20087;-74
2023/11/12 00:56:44;;;;;;;7.15;2.38;;;12.30;58.60;;;;;;6080528;29;20043;-73
2023/11/12 00:59:46;;;;;;;4.30;2.63;;;12.20;58.80;;;;;;6080568;29;20601;-74
2023/11/12 01:02:49;;;;;;;9.02;2.13;;;12.10;59.20;;;;;;6097540;29;20079;-74
2023/11/12 01:05:53;;;;;;;5.13;1.80;;;12.10;60.00;;;;;;6097705;29;20043;-73
2023/11/12 01:09:00;;;;;;;5.28;2.05;;;12.10;59.50;;;;;;6097096;29;20036;-74
2023/11/12 01:12:04;;;;;;;3.35;1.60;;;12.10;59.60;;;;;;6096665;29;20032;-73
2023/11/12 01:15:07;;;;;;;4.35;2.15;;;12.10;59.40;;;;;;6080073;29;20044;-73
2023/11/12 01:18:10;;;;;;;3.35;1.65;;;12.10;59.40;;;;;;6080193;29;20112;-74
2023/11/12 01:21:14;;;;;;;4.95;1.70;;;12.10;59.40;;;;;;6096654;29;20050;-73
2023/11/12 01:24:19;;;;;;;2.65;1.27;;;12.00;59.20;;;;;;6097081;29;20024;-73
2023/11/12 01:27:21;;;;;;;5.40;1.60;;;12.00;59.20;;;;;;6079967;29;20446;-73
2023/11/12 01:30:22;;;;;;;4.20;1.83;;;12.00;59.10;;;;;;6079436;29;20040;-73
2023/11/12 01:33:27;;;;;;;4.82;1.63;;;12.10;59.30;;;;;;6079635;29;20047;-73
2023/11/12 01:36:30;;;;;;;2.53;1.65;;;12.10;58.80;;;;;;6096747;29;20072;-73
2023/11/12 01:39:34;;;;;;;6.78;1.45;;;12.10;59.00;;;;;;6096613;29;20130;-73
2023/11/12 01:42:42;;;;;;;8.02;2.17;;;12.10;58.50;;;;;;6096779;29;20492;-74
2023/11/12 01:45:46;;;;;;;2.80;1.48;;;12.10;58.30;;;;;;6080068;29;20050;-73
2023/11/12 01:48:48;;;;;;;2.67;1.98;;;12.10;58.30;;;;;;6095704;29;20044;-74
2023/11/12 01:51:52;;;;;;;5.80;2.33;;;12.10;58.10;;;;;;6079685;29;20370;-73
2023/11/12 01:54:56;;;;;;;4.05;1.67;;;12.10;58.10;;;;;;6096860;29;20044;-73
2023/11/12 01:58:00;;;;;;;1.88;1.20;;;12.10;58.00;;;;;;6096951;29;20107;-72
2023/11/12 02:01:02;;;;;;;4.93;1.13;;;12.20;57.80;;;;;;6079477;29;20116;-74
2023/11/12 02:04:11;;;;;;;3.42;1.60;;;12.20;57.80;;;;;;6095459;29;20075;-73
2023/11/12 02:07:15;;;;;;;4.20;1.27;;;12.20;57.60;;;;;;6096816;29;20043;-72
2023/11/12 02:10:18;;;;;;;4.15;1.20;;;12.20;57.60;;;;;;6095105;29;20040;-73
2023/11/12 02:13:22;;;;;;;1.48;0.70;;;12.30;57.50;;;;;;6095364;29;20040;-72
2023/11/12 02:16:26;;;;;;;6.53;1.27;;;12.30;57.10;;;;;;6079679;29;20032;-73
2023/11/12 02:19:29;;;;;;;7.45;0.95;;;12.30;56.90;;;;;;6095064;29;20111;-73
2023/11/12 02:22:37;;;;;;;4.28;1.17;;;12.40;56.80;;;;;;6065400;29;20453;-72
2023/11/12 02:25:47;;;;;;;0.88;0.47;;;12.40;56.80;;;;;;6079330;29;20043;-73
2023/11/12 02:28:51;;;;;;;2.53;0.93;;;12.40;56.80;;;;;;6096373;29;20063;-73
2023/11/12 02:31:53;;;;;;;1.23;0.88;;;12.40;56.80;;;;;;6079020;29;20138;-73
2023/11/12 02:34:58;;;;;;;1.05;0.70;;;12.50;56.90;;;;;;6079765;29;20213;-73
2023/11/12 02:37:59;;;;;;;1.00;0.55;;;12.50;56.90;;;;;;6096426;29;20064;-73
2023/11/12 02:41:02;;;;;;;0.90;0.85;;;12.50;56.80;;;;;;6064582;29;20430;-73
2023/11/12 02:44:08;;;;;;;0.90;0.40;;;12.50;56.70;;;;;;6068329;29;20119;-74
2023/11/12 02:47:13;;;;;;;2.47;0.77;;;12.50;56.80;;;;;;6084477;29;20036;-72
2023/11/12 02:50:36;;;;;;;2.25;0.43;;;12.50;56.80;;;;;;6099007;29;20051;-74
2023/11/12 02:53:40;;;;;;;0.38;0.38;;;12.60;56.90;;;;;;6100961;29;20099;-74
2023/11/12 02:56:43;;;;;;;0.30;0.30;;;12.60;56.90;;;;;;6100508;29;20082;-73
2023/11/12 02:59:46;;;;;;;1.25;0.65;;;12.60;57.00;;;;;;6101071;29;20362;-73
2023/11/12 03:02:48;;;;;;;0.60;0.45;;;12.50;57.30;;;;;;6083253;29;20032;-75
2023/11/12 03:05:51;;;;;;;2.05;0.65;;;12.40;57.60;;;;;;6099076;29;20108;-73
2023/11/12 03:08:54;;;;;;;0.30;0.30;;;12.30;58.10;;;;;;6100079;29;20030;-75
2023/11/12 03:11:58;;;;;;;1.45;0.80;;;12.30;58.30;;;;;;6099735;29;20674;-73
2023/11/12 03:15:06;;;;;;;1.35;0.52;;;12.30;58.40;;;;;;6067162;29;20036;-73
2023/11/12 03:18:10;;;;;;;2.20;0.63;;;12.40;58.70;;;;;;6096898;29;20048;-74
2023/11/12 03:21:12;;;;;;;0.82;0.30;;;12.30;58.80;;;;;;6083021;29;20620;-74
2023/11/12 03:24:14;;;;;;;1.25;0.57;;;12.30;58.80;;;;;;6098066;29;20044;-74
2023/11/12 03:27:17;;;;;;;1.75;0.50;;;12.40;59.10;;;;;;6083244;29;20044;-73
2023/11/12 03:30:22;;;;;;;2.45;0.68;;;12.40;59.40;;;;;;6099661;29;20385;-74
2023/11/12 03:33:28;;;;;;;0.68;0.60;;;12.30;59.60;;;;;;6098285;29;20135;-74
2023/11/12 03:36:30;;;;;;;2.00;0.77;;;12.30;59.70;;;;;;6098263;29;20086;-74
2023/11/12 03:39:33;;;;;;;1.30;0.68;;;12.30;59.80;;;;;;6082395;29;20058;-73
2023/11/12 03:42:35;;;;;;;0.60;0.60;;;12.30;59.70;;;;;;6097880;29;20052;-72
2023/11/12 03:45:37;;;;;;;2.15;0.57;;;12.40;59.60;;;;;;6097907;29;20070;-74
2023/11/12 03:48:40;;;;;;;3.05;0.35;;;12.40;59.60;;;;;;6097785;29;20501;-72
2023/11/12 03:51:44;;;;;;;0.55;0.28;;;12.40;59.60;;;;;;6097139;29;20323;-73
2023/11/12 03:54:48;;;;;;;1.95;0.70;;;12.50;59.80;;;;;;6099060;29;20088;-74
2023/11/12 03:57:52;;;;;;;6.32;0.55;;;12.50;59.80;;;;;;6113746;29;20039;-73
2023/11/12 04:00:53;;;;;;;0.38;0.38;;;12.40;60.70;;;;;;6097700;29;20032;-74
2023/11/12 04:03:55;;;;;;;1.20;0.60;;;12.40;60.10;;;;;;6099465;29;20055;-73
2023/11/12 04:06:56;;;;;;;1.27;0.90;;;12.40;60.30;;;;;;6099389;29;20115;-74
2023/11/12 04:09:58;;;;;;;2.05;1.10;;;12.40;60.60;;;;;;6098918;29;20024;-72
2023/11/12 04:13:02;;;;;;;2.95;1.38;;;12.40;60.60;;;;;;6113503;29;20062;-73
2023/11/12 04:16:05;;;;;;;1.15;0.80;;;12.40;60.70;;;;;;6099550;29;20211;-75
2023/11/12 04:19:09;;;;;;;0.95;0.57;;;12.40;60.80;;;;;;6113462;29;20051;-73
2023/11/12 04:22:11;;;;;;;1.70;1.08;;;12.40;60.90;;;;;;6098455;29;20046;-74
2023/11/12 04:25:13;;;;;;;3.60;1.38;;;12.40;60.90;;;;;;6113001;29;20135;-75
2023/11/12 04:28:17;;;;;;;2.58;1.30;;;12.40;61.30;;;;;;6098883;29;20117;-73
2023/11/12 04:31:21;;;;;;;2.10;1.00;;;12.30;61.30;;;;;;6098635;29;20024;-73
2023/11/12 04:34:23;;;;;;;1.52;0.90;;;12.20;61.50;;;;;;6100479;29;20048;-72
2023/11/12 04:37:25;;;;;;;1.70;0.82;;;12.20;61.70;;;;;;6115768;29;20474;-72
2023/11/12 04:40:27;;;;;;;1.05;0.80;;;12.20;61.80;;;;;;6103504;29;20065;-73
2023/11/12 04:43:29;;;;;;;2.03;1.33;;;12.10;61.80;;;;;;6097734;29;20040;-74
2023/11/12 04:46:33;;;;;;;11.55;1.23;;;12.20;61.90;;;;;;6099148;29;20036;-74
2023/11/12 04:49:38;;;;;;;4.03;1.23;;;12.20;61.80;;;;;;6098724;29;20066;-73
2023/11/12 04:52:40;;;;;;;1.88;0.77;;;12.20;61.70;;;;;;6083093;29;20631;-73
2023/11/12 04:55:44;;;;;;;7.30;1.20;;;12.30;61.80;;;;;;6099291;29;20040;-73
2023/11/12 04:58:46;;;;;;;3.38;0.90;;;12.30;61.70;;;;;;6099692;29;20040;-73
2023/11/12 05:01:49;;;;;;;2.67;1.27;;;12.30;61.70;;;;;;6099397;29;20131;-73
2023/11/12 05:04:51;;;;;;;3.28;1.65;;;12.30;61.90;;;;;;6099077;29;20108;-74
2023/11/12 05:07:53;;;;;;;2.78;1.27;;;12.30;61.90;;;;;;6098796;29;20055;-73
2023/11/12 05:10:55;;;;;;;2.00;0.95;;;12.30;61.80;;;;;;6098489;29;20630;-73
2023/11/12 05:13:58;;;;;;;0.60;0.60;;;12.40;61.90;;;;;;6080972;29;20419;-74
2023/11/12 05:17:02;;;;;;;1.50;0.65;;;12.40;61.90;;;;;;6097714;29;20087;-73
2023/11/12 05:20:08;;;;;;;1.85;0.80;;;12.40;61.90;;;;;;6097606;29;20764;-74
2023/11/12 05:23:10;;;;;;;4.13;1.10;;;12.40;61.70;;;;;;6097916;29;20407;-74
2023/11/12 05:26:13;;;;;;;0.82;0.50;;;12.40;61.50;;;;;;6097923;29;20095;-73
2023/11/12 05:29:17;;;;;;;3.88;1.35;;;12.40;61.50;;;;;;6098671;29;20448;-71
2023/11/12 05:32:39;;;;;;;0.88;0.77;;;12.40;61.60;;;;;;6097185;29;20047;-73
2023/11/12 05:35:41;;;;;;;2.40;0.98;;;12.40;61.90;;;;;;6098178;29;20081;-73
2023/11/12 05:38:44;;;;;;;0.85;0.85;;;12.40;62.10;;;;;;6097766;29;20179;-74
2023/11/12 05:41:46;;;;;;;1.30;0.95;;;12.30;62.20;;;;;;6097280;29;20032;-73
2023/11/12 05:44:50;;;;;;;1.63;1.20;;;12.30;62.30;;;;;;6080206;29;20035;-73
2023/11/12 05:47:53;;;;;;;1.58;1.30;;;12.30;62.50;;;;;;6097054;29;20466;-73
2023/11/12 05:50:59;;;;;;;4.63;1.33;;;12.30;62.60;;;;;;6096725;29;20566;-73
2023/11/12 05:54:04;;;;;;;3.03;1.30;;;12.30;62.60;;;;;;6095964;29;20066;-73
2023/11/12 05:57:05;;;;;;;5.85;1.33;;;12.30;62.80;;;;;;6097062;29;20497;-73
2023/11/12 06:00:07;;;;;;;2.33;1.58;;;12.20;62.90;;;;;;6095862;29;20036;-73
2023/11/12 06:03:30;;;;;;;4.13;1.52;;;12.20;63.10;;;;;;6070708;29;20033;-73
2023/11/12 06:06:32;;;;;;;3.20;1.88;;;12.20;63.10;;;;;;6070626;29;20063;-73
2023/11/12 06:09:37;;;;;;;5.65;2.10;;;12.20;63.20;;;;;;6085548;29;20385;-73
2023/11/12 06:12:42;;;;;;;2.45;1.92;;;12.20;63.50;;;;;;6085107;29;20116;-74
2023/11/12 06:15:44;;;;;;;5.97;2.45;;;12.20;63.60;;;;;;6057634;29;20355;-74
2023/11/12 06:18:48;;;;;;;3.67;1.75;;;12.20;63.60;;;;;;6075036;29;20056;-74
2023/11/12 06:21:49;;;;;;;2.70;1.58;;;12.10;63.60;;;;;;6090697;29;20056;-72
2023/11/12 06:24:51;;;;;;;3.08;1.55;;;12.10;63.70;;;;;;6090724;29;20075;-73
2023/11/12 06:27:59;;;;;;;3.88;1.85;;;12.10;63.60;;;;;;6074916;29;20048;-74
2023/11/12 06:31:00;;;;;;;2.58;1.55;;;12.10;63.50;;;;;;6074614;29;20032;-76
2023/11/12 06:34:03;;;;;;;2.78;1.75;;;12.20;63.40;;;;;;6086743;29;20058;-73
2023/11/12 06:37:05;;;;;;;2.00;1.10;;;12.10;64.10;;;;;;6100117;29;20050;-73
2023/11/12 06:40:14;;;;;;;3.30;1.77;;;12.20;63.40;;;;;;6115549;29;20040;-75
2023/11/12 06:43:16;;;;;;;2.40;1.55;;;12.20;63.30;;;;;;6099636;29;20096;-74
2023/11/12 06:46:19;;;;;;;2.88;1.50;;;12.20;63.30;;;;;;6100630;29;20376;-74
2023/11/12 06:49:21;;;;;;;1.45;1.25;;;12.20;63.30;;;;;;6083820;29;20044;-75
2023/11/12 06:52:25;;;;;;;4.22;1.85;;;12.20;63.30;;;;;;6100349;29;20040;-74
2023/11/12 06:55:29;;;;;;;4.13;2.17;;;12.20;63.10;;;;;;6100432;29;20123;-73
2023/11/12 06:58:31;;;;;;;2.47;1.58;;;12.20;63.00;;;;;;6100536;29;20059;-74
2023/11/12 07:01:36;;;;;;;5.47;1.92;;;12.20;62.90;;;;;;6099979;29;20096;-74
2023/11/12 07:04:40;;;;;;;5.47;2.47;;;12.10;63.00;;;;;;6100020;29;20472;-74
2023/11/12 07:07:41;;;;;;;5.18;1.52;;;12.10;63.20;;;;;;6100294;29;20020;-74
2023/11/12 07:10:44;;;;;;;6.93;1.58;;;12.10;63.20;;;;;;6100112;29;20028;-73
2023/11/12 07:13:46;;;;;;;4.90;1.58;;;12.10;63.20;;;;;;6083503;29;20051;-74
2023/11/12 07:16:50;;;;;;;3.30;2.00;;;12.10;63.10;;;;;;6083429;29;20414;-74
2023/11/12 07:19:55;;;;;;;3.40;1.27;;;12.20;63.10;;;;;;6083441;29;20578;-73
2023/11/12 07:22:59;;;;;;;2.55;1.92;;;12.20;62.90;;;;;;6100260;29;20632;-74
2023/11/12 07:26:02;;;;;;;2.80;1.63;;;12.20;62.90;;;;;;6099974;29;20063;-72
2023/11/12 07:29:04;;;;;;;4.82;1.40;;;12.30;62.80;;;;;;6083023;29;20099;-73
2023/11/12 07:32:16;;;;;;;2.90;1.70;;;12.30;62.70;;;;;;6082648;29;20150;-72
2023/11/12 07:35:19;;;;;;;3.30;1.95;;;12.30;62.60;;;;;;6099696;29;20537;-73
2023/11/12 07:38:22;;;;;;;8.40;1.92;;;12.30;62.70;;;;;;6083111;29;20032;-72
2023/11/12 07:41:23;;;;;;;6.47;2.22;;;12.40;62.70;;;;;;6082380;29;20036;-74
2023/11/12 07:44:26;;;;;;;3.33;2.28;;;12.40;62.50;;;;;;6099835;29;20048;-73
2023/11/12 07:47:47;;;;;;;8.95;2.08;;;12.50;62.40;;;;;;6100056;29;20070;-72
2023/11/12 07:50:52;;;;;;;7.40;2.20;;;12.50;62.30;;;;;;6033988;29;20079;-73
2023/11/12 07:53:58;;;;;;;3.03;1.77;;;12.50;62.20;;;;;;6049564;29;20093;-73
2023/11/12 07:57:00;;;;;;;5.15;2.30;;;12.50;62.20;;;;;;6034219;29;20132;-75
2023/11/12 08:00:08;;;;;;;3.17;1.63;;;12.50;62.30;;;;;;6049794;29;20048;-75
2023/11/12 08:03:31;;;;;;;2.63;1.65;;;12.40;62.30;;;;;;6026366;29;20047;-74
2023/11/12 08:06:38;;;;;;;2.88;1.70;;;12.40;62.50;;;;;;6011723;29;20041;-74
2023/11/12 08:09:48;;;;;;;7.80;2.70;;;12.40;62.70;;;;;;6026180;29;20463;-72
2023/11/12 08:12:50;;;;;;;6.93;2.47;;;12.50;63.10;;;;;;6011584;29;20069;-73
2023/11/12 08:15:52;;;;;;;6.03;2.35;;;12.40;63.40;;;;;;6026460;29;20449;-72
2023/11/12 08:18:54;;;;;;;1.55;1.40;;;12.50;63.70;;;;;;6026634;29;20129;-74
2023/11/12 08:21:59;;;;;;;3.47;2.03;;;12.50;63.90;;;;;;6026030;29;20049;-73
2023/11/12 08:25:02;;;;;;;3.08;2.03;;;12.50;63.90;;;;;;6027064;29;20036;-73
2023/11/12 08:28:05;;;;;;;6.32;2.20;;;12.50;63.90;;;;;;6026287;29;20037;-74
2023/11/12 08:31:08;;;;;;;3.63;1.70;;;12.50;64.00;;;;;;6025831;29;20260;-73
2023/11/12 08:34:10;;;;;;;5.88;1.80;;;12.50;64.20;;;;;;6057737;29;20059;-74
2023/11/12 08:37:13;;;;;;;1.52;1.15;;;12.40;64.20;;;;;;6097470;29;20029;-74
2023/11/12 08:40:16;;;;;;;10.55;1.27;;;12.40;64.30;;;;;;6097824;29;20036;-73
2023/11/12 08:43:18;;;;;;;2.15;1.35;;;12.50;64.30;;;;;;6098217;29;20047;-73
2023/11/12 08:46:21;;;;;;;1.50;1.05;;;12.60;64.10;;;;;;6102022;29;20442;-74
2023/11/12 08:49:22;;;;;;;3.72;1.52;;;12.50;63.80;;;;;;6082356;29;20044;-73
2023/11/12 08:52:24;;;;;;;1.83;1.10;;;12.60;63.70;;;;;;6081555;29;20103;-73
2023/11/12 08:55:25;;;;;;;6.18;1.77;;;12.50;63.40;;;;;;6098715;29;20040;-73
2023/11/12 08:58:28;;;;;;;2.80;1.38;;;12.50;63.40;;;;;;6100767;29;20137;-74
2023/11/12 09:01:39;;;;;;;2.30;1.15;;;12.50;63.40;;;;;;6098601;29;20100;-73
2023/11/12 09:04:41;;;;;;;2.92;1.35;;;12.40;63.40;;;;;;6098650;29;20099;-74
2023/11/12 09:07:43;;;;;;;2.58;1.23;;;12.50;63.50;;;;;;6098067;29;20056;-73
2023/11/12 09:10:45;;;;;;;1.83;1.10;;;12.60;63.30;;;;;;6080949;29;20046;-74
2023/11/12 09:13:49;;;;;;;10.38;1.58;;;12.60;63.40;;;;;;6097741;29;20040;-73
2023/11/12 09:16:51;;;;;;;2.08;1.33;;;12.60;63.40;;;;;;6098282;29;20032;-74
2023/11/12 09:19:52;;;;;;;1.15;1.00;;;12.60;63.40;;;;;;6081353;29;20032;-74
2023/11/12 09:22:53;;;;;;;3.40;1.38;;;12.70;63.40;;;;;;6080934;29;20498;-73
2023/11/12 09:25:56;;;;;;;6.40;1.33;;;12.80;63.20;;;;;;6081278;29;20036;-73
2023/11/12 09:28:59;;;;;;;6.65;1.42;;;13.00;63.20;;;;;;6098499;29;20028;-75
2023/11/12 09:32:03;;;;;;;4.75;1.27;;;13.00;63.00;;;;;;6095592;29;20139;-72
2023/11/12 09:35:06;;;;;;;2.58;1.20;;;13.20;62.60;;;;;;6097619;29;20047;-74
2023/11/12 09:38:09;;;;;;;2.53;1.75;;;13.30;62.20;;;;;;6080614;29;20068;-72
2023/11/12 09:41:16;;;;;;;6.47;2.55;;;13.40;62.00;;;;;;6065270;29;20201;-74
2023/11/12 09:44:39;;;;;;;5.78;2.60;;;13.60;61.90;;;;;;6080494;29;20123;-73
2023/11/12 09:48:30;;;;;;;4.93;2.85;;;13.80;62.10;;;;;;6070273;29;20100;-73
2023/11/12 09:51:37;;;;;;;5.95;3.30;;;14.10;61.90;;;;;;6070242;29;20073;-73
2023/11/12 09:54:44;;;;;;;9.70;3.95;;;14.30;61.40;;;;;;6070863;29;20179;-73
2023/11/12 09:57:54;;;;;;;17.52;4.03;;;14.40;60.70;;;;;;6055996;29;20037;-74
2023/11/12 10:00:59;;;;;;;17.65;5.70;;;14.30;60.30;;;;;;6056348;29;20055;-73
2023/11/12 10:04:02;;;;;;;10.10;5.35;;;14.30;60.60;;;;;;6070728;29;20053;-74
2023/11/12 10:07:05;;;;;;;12.60;5.20;;;14.20;60.50;;;;;;6054854;29;20041;-74
2023/11/12 10:10:30;;;;;;;5.97;2.88;;;14.10;60.50;;;;;;6068299;29;20527;-73
2023/11/12 10:13:39;;;;;;;8.75;2.78;;;14.00;60.60;;;;;;6054965;29;20204;-73
2023/11/12 10:16:42;;;;;;;7.05;3.05;;;14.00;60.90;;;;;;6070277;29;20043;-74
2023/11/12 10:19:56;;;;;;;6.13;2.67;;;13.90;61.20;;;;;;6070219;29;20509;-73
2023/11/12 10:22:59;;;;;;;5.00;2.47;;;13.90;61.50;;;;;;6054913;29;20144;-73
2023/11/12 10:26:13;;;;;;;8.85;3.05;;;13.90;61.70;;;;;;6054921;29;20172;-73
2023/11/12 10:29:23;;;;;;;6.60;3.05;;;13.90;61.70;;;;;;6055516;29;20052;-73
2023/11/12 10:32:29;;;;;;;3.70;2.67;;;13.90;61.60;;;;;;6058031;29;20101;-75
2023/11/12 10:35:30;;;;;;;8.63;3.40;;;13.90;61.60;;;;;;6074285;29;20112;-74
2023/11/12 10:38:48;;;;;;;5.00;3.40;;;13.90;61.70;;;;;;6073721;29;20111;-73
2023/11/12 10:41:50;;;;;;;5.47;3.20;;;13.80;62.00;;;;;;6041295;29;20061;-73
2023/11/12 10:44:55;;;;;;;4.88;2.95;;;13.80;62.20;;;;;;6041647;29;20683;-74
2023/11/12 10:48:04;;;;;;;9.75;3.90;;;13.80;62.30;;;;;;6065508;29;20032;-74
2023/11/12 10:51:10;;;;;;;7.85;3.70;;;13.90;62.40;;;;;;6064604;29;20076;-73
2023/11/12 10:54:14;;;;;;;14.10;5.25;;;13.90;62.40;;;;;;6080244;29;20044;-75
2023/11/12 10:57:23;;;;;;;17.60;6.32;;;14.00;62.30;;;;;;6080072;29;20038;-75
2023/11/12 11:00:26;;;;;;;17.35;6.00;;;14.10;62.30;;;;;;6096581;29;20377;-73
2023/11/12 11:03:31;;;;;;;17.58;4.85;;;14.20;62.10;;;;;;6067913;29;20111;-73
2023/11/12 11:06:36;;;;;;;16.27;5.45;;;14.40;62.00;;;;;;6084084;29;20043;-73
2023/11/12 11:09:38;;;;;;;7.43;3.92;;;14.50;61.50;;;;;;6083797;29;20032;-73
2023/11/12 11:12:42;;;;;;;9.32;4.43;;;14.60;61.30;;;;;;6099973;29;20032;-73
2023/11/12 11:15:47;;;;;;;9.60;4.35;;;14.80;60.90;;;;;;6083728;29;20383;-74
2023/11/12 11:18:50;;;;;;;13.25;4.63;;;15.10;60.70;;;;;;6100413;29;20403;-74
2023/11/12 11:22:23;;;;;;;7.70;4.07;;;15.50;59.50;;;;;;6100084;29;20040;-74
2023/11/12 11:25:27;;;;;;;7.03;3.72;;;15.70;58.90;;;;;;6100281;29;20044;-74
2023/11/12 11:28:34;;;;;;;6.13;3.30;;;15.70;58.50;;;;;;6100072;29;20134;-74
2023/11/12 11:32:14;;;;;;;10.60;3.33;;;15.60;58.70;;;;;;6083360;29;20036;-74
2023/11/12 11:35:17;;;;;;;6.38;2.60;;;15.50;58.60;;;;;;6004519;29;20156;-75
2023/11/12 11:38:24;;;;;;;2.83;2.08;;;15.50;58.90;;;;;;6004144;29;20143;-74
2023/11/12 11:41:26;;;;;;;6.50;2.00;;;15.50;58.70;;;;;;6003820;29;20383;-73
2023/11/12 11:44:49;;;;;;;6.28;2.67;;;15.50;58.60;;;;;;5988838;29;20042;-73
2023/11/12 11:48:06;;;;;;;6.72;2.70;;;15.50;58.50;;;;;;5981692;29;20412;-74
2023/11/12 11:51:33;;;;;;;5.43;2.88;;;15.40;58.60;;;;;;5981004;29;20048;-75
2023/11/12 11:54:36;;;;;;;11.55;3.35;;;15.50;58.70;;;;;;5982099;29;20083;-73
2023/11/12 11:57:50;;;;;;;6.57;2.63;;;15.40;58.60;;;;;;5991969;29;20045;-73
2023/11/12 12:00:59;;;;;;;16.40;2.78;;;15.40;59.00;;;;;;5978112;29;20050;-73
2023/11/12 12:04:06;;;;;;;;;;;15.50;59.10;;;;;;5981652;29;20091;-73
2023/11/12 12:07:16;;;;;;;5.55;2.90;;;15.70;59.00;;;;;;5966165;29;19935;-74
2023/11/12 12:10:26;;;;;;;3.92;2.30;;;15.90;58.80;;;;;;5966145;29;20038;-73
2023/11/12 12:13:27;;;;;;;5.22;3.00;;;15.90;58.60;;;;;;6055980;29;20076;-73
2023/11/12 12:16:34;;;;;;;5.47;2.67;;;15.80;58.50;;;;;;6058562;29;20447;-73
2023/11/12 12:19:37;;;;;;;7.00;2.90;;;15.70;58.60;;;;;;6058921;29;20060;-73
2023/11/12 12:22:41;;;;;;;7.57;3.35;;;15.50;59.00;;;;;;6058426;29;20072;-72
2023/11/12 12:25:58;;;;;;;4.72;2.88;;;15.40;59.30;;;;;;6075520;29;20033;-72
2023/11/12 12:29:01;;;;;;;6.90;3.28;;;15.30;59.60;;;;;;6074984;29;20046;-73
2023/11/12 12:32:13;;;;;;;5.43;2.80;;;15.20;59.80;;;;;;6058282;29;20046;-75
2023/11/12 12:35:25;;;;;;;5.45;3.40;;;15.10;60.30;;;;;;6075012;29;20052;-74
2023/11/12 12:38:26;;;;;;;10.90;3.08;;;15.00;60.60;;;;;;6058845;29;20040;-73
2023/11/12 12:41:27;;;;;;;12.18;3.17;;;15.10;60.90;;;;;;6074727;29;20033;-72
2023/11/12 12:44:33;;;;;;;10.20;3.60;;;15.10;61.00;;;;;;6076664;29;20033;-73
2023/11/12 12:47:42;;;;;;;4.15;2.20;;;15.20;61.10;;;;;;6095572;29;20183;-74
2023/11/12 12:51:02;;;;;;;7.75;2.85;;;15.40;60.90;;;;;;6098113;29;20356;-74
2023/11/12 12:54:05;;;;;;;7.18;2.65;;;15.60;60.70;;;;;;6097908;29;20044;-74
2023/11/12 12:57:06;;;;;;;4.25;3.00;;;15.90;60.40;;;;;;6098396;29;20038;-74
2023/11/12 13:00:11;;;;;;;7.75;3.42;;;16.10;59.90;;;;;;6098682;29;20465;-74
2023/11/12 13:03:26;;;;;;;6.38;3.05;;;16.30;59.60;;;;;;6097789;29;20537;-75
2023/11/12 13:06:30;;;;;;;6.32;3.55;;;16.40;59.40;;;;;;6083278;29;20043;-75
2023/11/12 13:09:37;;;;;;;16.83;3.10;;;16.40;59.20;;;;;;6097627;29;20040;-74
2023/11/12 13:12:42;;;;;;;5.03;3.17;;;16.50;59.20;;;;;;6097726;29;20091;-74
2023/11/12 13:15:48;;;;;;;7.00;3.22;;;16.50;59.20;;;;;;6097933;29;20032;-74
2023/11/12 13:18:51;;;;;;;7.13;3.60;;;16.60;59.00;;;;;;6081123;29;20410;-73
2023/11/12 13:21:54;;;;;;;5.13;3.17;;;16.70;58.90;;;;;;6097697;29;20071;-75
2023/11/12 13:24:59;;;;;;;5.28;2.58;;;16.70;59.00;;;;;;6097157;29;20051;-73
2023/11/12 13:28:02;;;;;;;6.68;3.30;;;16.70;58.90;;;;;;6095334;29;20047;-75
2023/11/12 13:31:05;;;;;;;6.45;3.10;;;16.80;58.90;;;;;;6080788;29;20051;-74
2023/11/12 13:34:10;;;;;;;6.68;3.53;;;16.80;58.80;;;;;;6080822;29;20059;-74
2023/11/12 13:37:12;;;;;;;8.43;3.30;;;16.80;58.90;;;;;;6097768;29;20362;-73
2023/11/12 13:40:18;;;;;;;6.72;3.05;;;16.80;59.00;;;;;;6097304;29;20092;-74
2023/11/12 13:43:21;;;;;;;8.50;3.85;;;16.80;59.10;;;;;;6097256;29;20028;-72
2023/11/12 13:46:24;;;;;;;8.65;4.00;;;16.80;59.10;;;;;;6097237;29;20028;-73
2023/11/12 13:49:28;;;;;;;5.60;3.30;;;16.80;59.20;;;;;;6097432;29;20535;-74
2023/11/12 13:52:32;;;;;;;7.57;3.40;;;16.90;59.20;;;;;;6096900;29;20091;-74
2023/11/12 13:55:33;;;;;;;7.57;2.97;;;17.00;59.10;;;;;;6097537;29;20138;-74
2023/11/12 13:58:42;;;;;;;6.13;3.50;;;17.10;59.00;;;;;;6097112;29;20330;-73
2023/11/12 14:01:45;;;;;;;6.38;2.58;;;17.10;58.90;;;;;;6097246;29;20063;-74
2023/11/12 14:04:51;;;;;;;5.75;3.13;;;17.10;58.80;;;;;;6095976;29;20047;-74
2023/11/12 14:07:56;;;;;;;9.30;3.22;;;17.10;58.70;;;;;;6097499;29;20661;-75
2023/11/12 14:11:01;;;;;;;7.32;3.10;;;17.20;58.80;;;;;;6098595;29;20036;-75
2023/11/12 14:14:05;;;;;;;8.40;3.05;;;17.20;58.80;;;;;;6097485;29;20056;-75
2023/11/12 14:17:08;;;;;;;9.75;4.30;;;17.20;58.80;;;;;;6095635;29;20024;-73
2023/11/12 14:20:25;;;;;;;10.23;4.72;;;17.10;58.80;;;;;;6111377;29;20066;-74
2023/11/12 14:23:28;;;;;;;7.97;3.50;;;17.10;58.70;;;;;;6096000;29;20051;-74
2023/11/12 14:26:32;;;;;;;7.63;3.63;;;17.20;58.90;;;;;;6097608;29;20654;-74
2023/11/12 14:29:34;;;;;;;10.65;4.13;;;17.20;58.80;;;;;;6111876;29;20036;-75
2023/11/12 14:32:38;;;;;;;5.40;3.42;;;17.10;58.80;;;;;;6096825;29;20055;-74
2023/11/12 14:35:43;;;;;;;6.53;3.45;;;17.10;58.90;;;;;;6097993;29;20153;-73
2023/11/12 14:38:48;;;;;;;13.38;4.57;;;17.10;59.00;;;;;;6099369;29;20039;-74
2023/11/12 14:41:49;;;;;;;8.73;3.15;;;17.10;59.00;;;;;;6101028;29;20032;-74
2023/11/12 14:44:52;;;;;;;9.70;3.53;;;17.00;59.10;;;;;;6099925;29;20036;-74
2023/11/12 14:47:53;;;;;;;8.57;3.15;;;17.10;59.20;;;;;;6047496;29;20033;-74
2023/11/12 14:50:55;;;;;;;9.55;4.10;;;17.00;59.20;;;;;;6076649;29;20052;-73
2023/11/12 14:53:59;;;;;;;11.23;2.95;;;16.90;59.20;;;;;;6077079;29;20423;-73
2023/11/12 14:57:04;;;;;;;9.35;3.28;;;16.90;59.30;;;;;;6077637;29;20048;-74
2023/11/12 15:00:15;;;;;;;12.82;4.25;;;16.90;59.40;;;;;;6076238;29;20439;-73
2023/11/12 15:03:18;;;;;;;6.78;3.80;;;16.90;59.40;;;;;;6076386;29;20055;-73
2023/11/12 15:06:22;;;;;;;7.32;2.88;;;16.90;59.40;;;;;;6077405;29;20028;-74
2023/11/12 15:09:25;;;;;;;5.22;3.03;;;16.90;59.60;;;;;;6075984;29;20036;-75
2023/11/12 15:12:27;;;;;;;17.75;4.97;;;16.70;59.80;;;;;;6077139;29;20033;-74
2023/11/12 15:15:30;;;;;;;7.30;3.20;;;16.60;60.10;;;;;;6077516;29;20144;-74
2023/11/12 15:18:35;;;;;;;11.93;4.60;;;16.50;60.50;;;;;;6062441;29;20037;-73
2023/11/12 15:21:42;;;;;;;9.68;4.35;;;16.40;60.80;;;;;;6077287;29;20029;-74
2023/11/12 15:24:45;;;;;;;10.52;4.47;;;16.30;61.20;;;;;;6075798;29;20052;-74
2023/11/12 15:27:59;;;;;;;11.30;3.90;;;16.20;61.50;;;;;;6077044;29;20040;-73
2023/11/12 15:31:01;;;;;;;14.75;5.30;;;16.10;61.90;;;;;;6076662;29;20120;-74
2023/11/12 15:34:02;;;;;;;27.73;10.27;;;16.00;62.30;;;;;;6075627;29;20033;-73
2023/11/12 15:37:05;;;;;;;24.85;10.05;;;15.90;62.70;;;;;;6059819;29;20519;-73
2023/11/12 15:40:22;;;;;;;19.23;7.38;;;15.80;63.20;;;;;;6059422;29;20040;-74
2023/11/12 15:43:27;;;;;;;10.98;5.53;;;15.70;63.50;;;;;;6075211;29;20374;-74
2023/11/12 15:46:29;;;;;;;29.52;8.57;;;15.60;63.80;;;;;;6064091;29;20123;-74
2023/11/12 15:49:31;;;;;;;13.07;6.75;;;15.60;64.00;;;;;;6077928;29;20040;-74
2023/11/12 15:52:34;;;;;;;14.43;5.85;;;15.50;64.30;;;;;;6075850;29;20417;-74
2023/11/12 15:55:39;;;;;;;18.35;8.30;;;15.50;64.50;;;;;;6077080;29;20449;-73
2023/11/12 15:58:42;;;;;;;17.42;7.22;;;15.40;64.70;;;;;;6077481;29;20391;-74
2023/11/12 16:01:44;;;;;;;18.55;6.93;;;15.40;64.90;;;;;;6077396;29;20036;-78